createdAt,value
2018-04-10T00:00:58.732Z,81.29
2018-04-10T00:01:58.722Z,80.82
2018-04-10T00:02:58.712Z,79.68
2018-04-10T00:03:58.701Z,79.96
2018-04-10T00:04:58.691Z,80.72
2018-04-10T00:05:58.676Z,80.72
2018-04-10T00:06:58.422Z,80.44
2018-04-10T00:07:58.404Z,80.05
2018-04-10T00:08:58.650Z,79.96
2018-04-10T00:09:58.638Z,80.34
2018-04-10T00:10:58.370Z,80.44
2018-04-10T00:11:58.615Z,80.72
2018-04-10T00:12:58.352Z,80.15
2018-04-10T00:13:58.341Z,80.15
2018-04-10T00:14:58.583Z,80.44
2018-04-10T00:15:58.577Z,79.77
2018-04-10T00:16:58.308Z,80.05
2018-04-10T00:17:58.562Z,79.58
2018-04-10T00:18:58.545Z,79.3
2018-04-10T00:19:58.532Z,79.49
2018-04-10T00:20:58.524Z,78.5
2018-04-10T00:21:58.513Z,77.92
2018-04-10T00:22:58.504Z,78.78
2018-04-10T00:23:58.496Z,79.06
2018-04-10T00:24:58.223Z,78.21
2018-04-10T00:25:58.218Z,77.55
2018-04-10T00:26:58.459Z,77.26
2018-04-10T00:27:58.448Z,77.17
2018-04-10T00:28:58.181Z,76.5
2018-04-10T00:29:58.467Z,76.5
2018-04-10T00:30:58.159Z,75.17
2018-04-10T00:31:58.405Z,74.69
2018-04-10T00:32:58.138Z,73.46
2018-04-10T00:33:58.383Z,74.03
2018-04-10T00:34:58.116Z,74.22
2018-04-10T00:35:58.363Z,74.31
2018-04-10T00:36:58.353Z,75.17
2018-04-10T00:37:58.342Z,75.26
2018-04-10T00:38:58.579Z,75.26
2018-04-10T00:39:58.317Z,75.07
2018-04-10T00:40:58.310Z,75.17
2018-04-10T00:41:58.294Z,73.65
2018-04-10T00:42:58.286Z,74.22
2018-04-10T00:43:58.019Z,73.55
2018-04-10T00:44:58.006Z,73.55
2018-04-10T00:45:58.257Z,74.51
2018-04-10T00:46:58.243Z,74.12
2018-04-10T00:47:58.265Z,73.93
2018-04-10T00:48:58.223Z,73.93
2018-04-10T00:49:58.206Z,73.55
2018-04-10T00:50:58.196Z,73.36
2018-04-10T00:51:58.189Z,73.36
2018-04-10T00:52:57.919Z,72.99
2018-04-10T00:53:57.907Z,72.13
2018-04-10T00:54:58.153Z,71.84
2018-04-10T00:55:58.143Z,72.41
2018-04-10T00:56:57.875Z,72.13
2018-04-10T00:57:58.120Z,71.94
2018-04-10T00:58:57.858Z,71.84
2018-04-10T00:59:57.842Z,72.41
2018-04-10T01:00:57.832Z,71.94
2018-04-10T01:01:58.075Z,71.27
2018-04-10T01:02:58.067Z,71.56
2018-04-10T01:03:57.798Z,71.56
2018-04-10T01:04:58.042Z,71.08
2018-04-10T01:05:57.776Z,71.27
2018-04-10T01:06:58.020Z,71.56
2018-04-10T01:07:58.012Z,72.13
2018-04-10T01:08:57.743Z,72.32
2018-04-10T01:09:57.987Z,72.6
2018-04-10T01:10:57.975Z,72.7
2018-04-10T01:11:57.968Z,73.27
2018-04-10T01:12:57.953Z,73.27
2018-04-10T01:13:57.945Z,73.08
2018-04-10T01:14:57.676Z,73.08
2018-04-10T01:15:57.918Z,73.08
2018-04-10T01:16:57.654Z,73.08
2018-04-10T01:17:57.899Z,73.84
2018-04-10T01:18:57.632Z,73.93
2018-04-10T01:19:57.876Z,73.84
2018-04-10T01:20:57.865Z,73.55
2018-04-10T01:21:57.598Z,73.65
2018-04-10T01:22:57.844Z,73.93
2018-04-10T01:23:57.574Z,74.31
2018-04-10T01:24:57.564Z,75.07
2018-04-10T01:25:57.551Z,73.8
2018-04-10T01:26:57.796Z,72.85
2018-04-10T01:27:57.786Z,73.14
2018-04-10T01:28:57.773Z,73.52
2018-04-10T01:29:57.506Z,73.8
2018-04-10T01:30:57.494Z,74.47
2018-04-10T01:31:57.485Z,75.04
2018-04-10T01:32:57.729Z,74.47
2018-04-10T01:33:57.716Z,74.08
2018-04-10T01:34:57.451Z,74.37
2018-04-10T01:35:57.696Z,73.42
2018-04-10T01:36:57.692Z,72.38
2018-04-10T01:37:57.675Z,70.48
2018-04-10T01:38:57.662Z,69.81
2018-04-10T01:39:57.647Z,68.48
2018-04-10T01:40:57.382Z,68.58
2018-04-10T01:41:57.631Z,68.86
2018-04-10T01:42:57.614Z,68.48
2018-04-10T01:43:57.601Z,68.19
2018-04-10T01:44:57.337Z,67.15
2018-04-10T01:45:57.584Z,66.67
2018-04-10T01:46:57.571Z,66.49
2018-04-10T01:47:57.559Z,66.11
2018-04-10T01:48:57.545Z,66.11
2018-04-10T01:49:57.533Z,66.2
2018-04-10T01:50:57.527Z,65.92
2018-04-10T01:51:57.514Z,66.3
2018-04-10T01:52:57.498Z,66.58
2018-04-10T01:53:57.493Z,67.06
2018-04-10T01:54:57.475Z,67.53
2018-04-10T01:55:57.465Z,68.19
2018-04-10T01:56:57.453Z,68.86
2018-04-10T01:57:57.439Z,68.96
2018-04-10T01:58:57.429Z,69.05
2018-04-10T01:59:57.161Z,69.91
2018-04-10T02:00:57.151Z,68.86
2018-04-10T02:01:57.395Z,68.48
2018-04-10T02:02:57.383Z,69.05
2018-04-10T02:03:57.116Z,68.96
2018-04-10T02:04:57.103Z,69.71
2018-04-10T02:05:57.346Z,69.71
2018-04-10T02:06:57.336Z,70.38
2018-04-10T02:07:57.322Z,71.23
2018-04-10T02:08:57.310Z,71.04
2018-04-10T02:09:57.300Z,71.52
2018-04-10T02:10:57.292Z,71.62
2018-04-10T02:11:57.276Z,71.14
2018-04-10T02:12:57.265Z,71.52
2018-04-10T02:13:56.998Z,71.9
2018-04-10T02:14:57.244Z,71.23
2018-04-10T02:15:57.230Z,70.48
2018-04-10T02:16:57.221Z,70.67
2018-04-10T02:17:56.951Z,70.1
2018-04-10T02:18:56.942Z,69.15
2018-04-10T02:19:57.183Z,68.58
2018-04-10T02:20:57.175Z,68.01
2018-04-10T02:21:57.160Z,68.29
2018-04-10T02:22:57.150Z,68.77
2018-04-10T02:23:57.141Z,68.01
2018-04-10T02:24:57.131Z,67.63
2018-04-10T02:25:57.117Z,66.77
2018-04-10T02:26:56.846Z,66.96
2018-04-10T02:27:57.092Z,67.06
2018-04-10T02:28:57.078Z,67.25
2018-04-10T02:29:57.065Z,67.25
2018-04-10T02:30:57.058Z,66.58
2018-04-10T02:31:56.784Z,66.77
2018-04-10T02:32:57.028Z,66.2
2018-04-10T02:33:57.018Z,66.01
2018-04-10T02:34:56.749Z,66.77
2018-04-10T02:35:57.000Z,66.67
2018-04-10T02:36:56.982Z,66.2
2018-04-10T02:37:56.976Z,66.39
2018-04-10T02:38:56.709Z,66.11
2018-04-10T02:39:56.693Z,66.96
2018-04-10T02:40:56.944Z,67.31
2018-04-10T02:41:56.927Z,68.26
2018-04-10T02:42:56.657Z,68.64
2018-04-10T02:43:56.914Z,68.77
2018-04-10T02:44:56.889Z,69.71
2018-04-10T02:45:56.877Z,70.29
2018-04-10T02:46:56.866Z,71.23
2018-04-10T02:47:56.857Z,71.04
2018-04-10T02:48:56.841Z,69.68
2018-04-10T02:49:56.579Z,70
2018-04-10T02:50:56.822Z,70.44
2018-04-10T02:51:56.812Z,69.4
2018-04-10T02:52:56.793Z,70.1
2018-04-10T02:53:56.785Z,70.15
2018-04-10T02:54:56.515Z,71.3
2018-04-10T02:55:56.759Z,71.01
2018-04-10T02:56:56.749Z,70.54
2018-04-10T02:57:56.748Z,71.2
2018-04-10T02:58:56.725Z,71.01
2018-04-10T02:59:56.712Z,70.54
2018-04-10T03:00:56.445Z,69.78
2018-04-10T03:01:56.432Z,69.68
2018-04-10T03:02:56.676Z,67.88
2018-04-10T03:03:56.664Z,67.88
2018-04-10T03:04:56.657Z,68.44
2018-04-10T03:05:56.638Z,67.97
2018-04-10T03:06:56.628Z,68.07
2018-04-10T03:07:56.615Z,67.97
2018-04-10T03:08:56.346Z,67.97
2018-04-10T03:09:56.589Z,67.5
2018-04-10T03:10:56.579Z,67.12
2018-04-10T03:11:56.567Z,66.64
2018-04-10T03:12:56.297Z,66.74
2018-04-10T03:13:56.545Z,67.79
2018-04-10T03:14:56.531Z,68.07
2018-04-10T03:15:56.521Z,68.07
2018-04-10T03:16:56.510Z,68.16
2018-04-10T03:17:56.496Z,68.64
2018-04-10T03:18:56.482Z,68.83
2018-04-10T03:19:56.215Z,68.26
2018-04-10T03:20:56.463Z,68.73
2018-04-10T03:21:56.445Z,69.3
2018-04-10T03:22:56.179Z,68.64
2018-04-10T03:23:56.166Z,68.16
2018-04-10T03:24:56.155Z,67.88
2018-04-10T03:25:56.401Z,68.26
2018-04-10T03:26:56.387Z,67.88
2018-04-10T03:27:56.122Z,67.59
2018-04-10T03:28:56.423Z,66.46
2018-04-10T03:29:56.357Z,66.83
2018-04-10T03:30:56.342Z,67.4
2018-04-10T03:31:56.073Z,68.26
2018-04-10T03:32:56.313Z,67.72
2018-04-10T03:33:56.046Z,68.07
2018-04-10T03:34:56.295Z,68.58
2018-04-10T03:35:56.281Z,69.15
2018-04-10T03:36:56.010Z,69.91
2018-04-10T03:37:56.001Z,70.38
2018-04-10T03:38:55.987Z,70.25
2018-04-10T03:39:56.229Z,69.71
2018-04-10T03:40:56.219Z,69.71
2018-04-10T03:41:56.208Z,69.91
2018-04-10T03:42:56.193Z,69.49
2018-04-10T03:43:55.933Z,69.34
2018-04-10T03:44:56.168Z,68.58
2018-04-10T03:45:55.902Z,68.83
2018-04-10T03:46:55.891Z,68.83
2018-04-10T03:47:55.901Z,68.83
2018-04-10T03:48:56.121Z,68.83
2018-04-10T03:49:55.854Z,69.4
2018-04-10T03:50:56.103Z,69.34
2018-04-10T03:51:56.084Z,69.49
2018-04-10T03:52:56.075Z,70.06
2018-04-10T03:53:56.065Z,70.38
2018-04-10T03:54:56.051Z,71.43
2018-04-10T03:55:55.786Z,71.04
2018-04-10T03:56:56.031Z,71.81
2018-04-10T03:57:55.757Z,72.06
2018-04-10T03:58:55.999Z,72.72
2018-04-10T03:59:55.987Z,73.1
2018-04-10T04:00:55.977Z,73
2018-04-10T04:01:55.965Z,72.91
2018-04-10T04:02:55.953Z,73.29
2018-04-10T04:03:55.940Z,72.44
2018-04-10T04:04:55.672Z,71.58
2018-04-10T04:05:55.917Z,71.01
2018-04-10T04:06:55.650Z,71.11
2018-04-10T04:07:55.637Z,70.54
2018-04-10T04:08:55.966Z,69.96
2018-04-10T04:09:55.613Z,69.11
2018-04-10T04:10:55.857Z,69.49
2018-04-10T04:11:55.845Z,69.3
2018-04-10T04:12:55.581Z,69.96
2018-04-10T04:13:55.564Z,70.06
2018-04-10T04:14:55.808Z,68.83
2018-04-10T04:15:55.542Z,68.16
2018-04-10T04:16:55.785Z,68.54
2018-04-10T04:17:55.516Z,68.73
2018-04-10T04:18:55.504Z,69.11
2018-04-10T04:19:55.492Z,69.68
2018-04-10T04:20:55.738Z,70.35
2018-04-10T04:21:55.724Z,70.06
2018-04-10T04:22:55.456Z,68.64
2018-04-10T04:23:55.444Z,68.64
2018-04-10T04:24:55.690Z,67.97
2018-04-10T04:25:55.677Z,67.31
2018-04-10T04:26:55.665Z,68.16
2018-04-10T04:27:55.651Z,68.54
2018-04-10T04:28:55.641Z,69.3
2018-04-10T04:29:55.629Z,69.02
2018-04-10T04:30:55.362Z,68.64
2018-04-10T04:31:55.605Z,68.44
2018-04-10T04:32:55.598Z,68.26
2018-04-10T04:33:55.581Z,66.55
2018-04-10T04:34:55.567Z,65.56
2018-04-10T04:35:55.298Z,65.22
2018-04-10T04:36:55.544Z,64.84
2018-04-10T04:37:55.276Z,64.56
2018-04-10T04:38:55.520Z,64.17
2018-04-10T04:39:55.508Z,63.79
2018-04-10T04:40:55.495Z,64.27
2018-04-10T04:41:55.225Z,63.79
2018-04-10T04:42:55.214Z,63.04
2018-04-10T04:43:55.201Z,61.8
2018-04-10T04:44:55.446Z,61.9
2018-04-10T04:45:55.440Z,61.9
2018-04-10T04:46:55.421Z,62.85
2018-04-10T04:47:55.409Z,63.51
2018-04-10T04:48:55.397Z,63.7
2018-04-10T04:49:55.386Z,62.85
2018-04-10T04:50:55.376Z,63.13
2018-04-10T04:51:55.365Z,62.88
2018-04-10T04:52:55.096Z,62.88
2018-04-10T04:53:55.337Z,62.97
2018-04-10T04:54:55.328Z,63.92
2018-04-10T04:55:55.313Z,64.97
2018-04-10T04:56:55.303Z,65.63
2018-04-10T04:57:55.030Z,65.73
2018-04-10T04:58:55.276Z,66.11
2018-04-10T04:59:55.273Z,66.49
2018-04-10T05:00:54.994Z,66.67
2018-04-10T05:01:55.239Z,67.15
2018-04-10T05:02:55.227Z,68.01
2018-04-10T05:03:54.958Z,68.01
2018-04-10T05:04:55.202Z,68.01
2018-04-10T05:05:55.192Z,68.86
2018-04-10T05:06:55.182Z,68.96
2018-04-10T05:07:55.168Z,69.43
2018-04-10T05:08:54.898Z,69.71
2018-04-10T05:09:55.144Z,70.29
2018-04-10T05:10:55.133Z,70.57
2018-04-10T05:11:55.120Z,71.14
2018-04-10T05:12:54.851Z,71.23
2018-04-10T05:13:55.097Z,72.47
2018-04-10T05:14:55.084Z,73.23
2018-04-10T05:15:54.816Z,73.99
2018-04-10T05:16:55.104Z,74.37
2018-04-10T05:17:55.049Z,75.13
2018-04-10T05:18:55.037Z,75.79
2018-04-10T05:19:55.026Z,76.56
2018-04-10T05:20:55.015Z,77.17
2018-04-10T05:21:54.746Z,77.79
2018-04-10T05:22:54.756Z,78.21
2018-04-10T05:23:54.978Z,78.59
2018-04-10T05:24:54.967Z,78.78
2018-04-10T05:25:54.955Z,78.97
2018-04-10T05:26:54.962Z,79.35
2018-04-10T05:27:54.681Z,79.35
2018-04-10T05:28:54.922Z,79.35
2018-04-10T05:29:54.972Z,79.35
2018-04-10T05:30:54.896Z,79.44
2018-04-10T05:31:54.883Z,79.54
2018-04-10T05:32:54.874Z,79.63
2018-04-10T05:33:54.608Z,79.54
2018-04-10T05:34:54.853Z,80.02
2018-04-10T05:35:54.593Z,80.02
2018-04-10T05:36:54.571Z,80.21
2018-04-10T05:37:54.562Z,79.63
2018-04-10T05:38:54.804Z,79.35
2018-04-10T05:39:54.537Z,78.88
2018-04-10T05:40:54.780Z,79.25
2018-04-10T05:41:54.770Z,79.35
2018-04-10T05:42:54.505Z,79.35
2018-04-10T05:43:54.752Z,78.97
2018-04-10T05:44:54.487Z,78.78
2018-04-10T05:45:54.726Z,78.78
2018-04-10T05:46:54.458Z,78.78
2018-04-10T05:47:54.447Z,78.78
2018-04-10T05:48:54.692Z,78.4
2018-04-10T05:49:54.680Z,78.4
2018-04-10T05:50:54.413Z,78.69
2018-04-10T05:51:54.400Z,78.4
2018-04-10T05:52:54.645Z,79.35
2018-04-10T05:53:54.634Z,79.35
2018-04-10T05:54:54.624Z,79.77
2018-04-10T05:55:54.612Z,80.34
2018-04-10T05:56:54.344Z,80.44
2018-04-10T05:57:54.336Z,80.72
2018-04-10T05:58:54.583Z,81.29
2018-04-10T05:59:54.573Z,81.67
2018-04-10T06:00:54.302Z,82.05
2018-04-10T06:01:54.550Z,82.34
2018-04-10T06:02:54.537Z,83
2018-04-10T06:03:54.573Z,83.58
2018-04-10T06:04:54.515Z,84.14
2018-04-10T06:05:54.504Z,84.52
2018-04-10T06:06:54.494Z,85.38
2018-04-10T06:07:54.225Z,85.9
2018-04-10T06:08:54.470Z,86.09
2018-04-10T06:09:54.252Z,86.94
2018-04-10T06:10:54.451Z,87.32
2018-04-10T06:11:54.441Z,87.9
2018-04-10T06:12:54.430Z,88.18
2018-04-10T06:13:54.162Z,88.46
2018-04-10T06:14:54.151Z,88.28
2018-04-10T06:15:54.448Z,88.75
2018-04-10T06:16:54.129Z,89.75
2018-04-10T06:17:54.378Z,90.03
2018-04-10T06:18:54.108Z,90.32
2018-04-10T06:19:54.357Z,90.8
2018-04-10T06:20:54.351Z,91.56
2018-04-10T06:21:54.079Z,92.13
2018-04-10T06:22:54.328Z,92.41
2018-04-10T06:23:54.314Z,92.51
2018-04-10T06:24:54.304Z,93.37
2018-04-10T06:25:54.298Z,93.08
2018-04-10T06:26:54.282Z,93.08
2018-04-10T06:27:54.273Z,92.7
2018-04-10T06:28:54.263Z,93.27
2018-04-10T06:29:54.253Z,94.03
2018-04-10T06:30:54.244Z,94.37
2018-04-10T06:31:54.233Z,95.03
2018-04-10T06:32:54.223Z,95.32
2018-04-10T06:33:54.221Z,95.7
2018-04-10T06:34:54.212Z,95.51
2018-04-10T06:35:53.942Z,96.55
2018-04-10T06:36:54.186Z,96.32
2018-04-10T06:37:54.176Z,96.12
2018-04-10T06:38:53.910Z,96.7
2018-04-10T06:39:54.158Z,98.08
2018-04-10T06:40:53.891Z,97.17
2018-04-10T06:41:54.141Z,96.75
2018-04-10T06:42:54.126Z,92.31
2018-04-10T06:43:54.124Z,88.44
2018-04-10T06:44:54.110Z,84.66
2018-04-10T06:45:53.847Z,79
2018-04-10T06:46:54.097Z,74.74
2018-04-10T06:47:54.091Z,70.18
2018-04-10T06:48:53.819Z,65.81
2018-04-10T06:49:54.069Z,66.22
2018-04-10T06:50:54.063Z,56.31
2018-04-10T06:51:54.061Z,55.38
2018-04-10T06:52:53.796Z,52.43
2018-04-10T06:53:53.786Z,50.73
2018-04-10T06:54:53.780Z,46.53
2018-04-10T06:55:54.032Z,44.35
2018-04-10T06:56:54.027Z,41.01
2018-04-10T06:57:53.765Z,41.8
2018-04-10T06:58:53.761Z,38.06
2018-04-10T06:59:53.756Z,35.77
2018-04-10T07:00:54.011Z,33.86
2018-04-10T07:01:54.013Z,36
2018-04-10T07:02:54.004Z,32.54
2018-04-10T07:03:53.743Z,31.2
2018-04-10T07:04:53.996Z,29.96
2018-04-10T07:05:53.992Z,28.43
2018-04-10T07:06:53.992Z,27.85
2018-04-10T07:07:54.033Z,27.86
2018-04-10T07:08:53.733Z,27.37
2018-04-10T07:09:53.983Z,26.21
2018-04-10T07:10:53.984Z,26.12
2018-04-10T07:11:53.982Z,26.42
2018-04-10T07:12:53.980Z,26.31
2018-04-10T07:13:53.984Z,27.19
2018-04-10T07:14:53.977Z,26.62
2018-04-10T07:15:53.719Z,25.85
2018-04-10T07:16:53.976Z,26.34
2018-04-10T07:17:54.016Z,25.76
2018-04-10T07:18:53.974Z,26.16
2018-04-10T07:19:53.716Z,24.41
2018-04-10T07:20:54.077Z,25.1
2018-04-10T07:21:53.970Z,24.43
2018-04-10T07:22:53.968Z,24.04
2018-04-10T07:23:53.969Z,24.13
2018-04-10T07:24:53.711Z,24.12
2018-04-10T07:25:53.965Z,23.93
2018-04-10T07:26:53.967Z,24.69
2018-04-10T07:27:53.709Z,25.84
2018-04-10T07:28:53.963Z,26.98
2018-04-10T07:29:53.708Z,27.35
2018-04-10T07:30:53.961Z,27.61
2018-04-10T07:31:53.960Z,28.66
2018-04-10T07:32:53.960Z,31.73
2018-04-10T07:33:53.703Z,36.73
2018-04-10T07:34:53.958Z,35.85
2018-04-10T07:35:53.958Z,34.4
2018-04-10T07:36:53.699Z,38.14
2018-04-10T07:37:53.954Z,36.68
2018-04-10T07:38:53.696Z,36.47
2018-04-10T07:39:54.031Z,36.76
2018-04-10T07:40:53.949Z,37.32
2018-04-10T07:41:53.949Z,38.16
2018-04-10T07:42:53.689Z,39.12
2018-04-10T07:43:53.944Z,39.39
2018-04-10T07:44:53.939Z,39.49
2018-04-10T07:45:53.684Z,41.89
2018-04-10T07:46:53.940Z,42.85
2018-04-10T07:47:53.935Z,48.04
2018-04-10T07:48:53.677Z,46.19
2018-04-10T07:49:53.931Z,43.12
2018-04-10T07:50:53.927Z,41.96
2018-04-10T07:51:53.925Z,42.06
2018-04-10T07:52:53.924Z,43.21
2018-04-10T07:53:53.920Z,43.4
2018-04-10T07:54:53.922Z,42.83
2018-04-10T07:55:53.917Z,43.7
2018-04-10T07:56:53.657Z,46.77
2018-04-10T07:57:53.916Z,46.86
2018-04-10T07:58:53.655Z,47.15
2018-04-10T07:59:53.651Z,49.26
2018-04-10T08:00:54.006Z,50.32
2018-04-10T08:01:53.650Z,47.92
2018-04-10T08:02:53.910Z,48.88
2018-04-10T08:03:53.645Z,50.23
2018-04-10T08:04:53.904Z,47.08
2018-04-10T08:05:53.895Z,44.27
2018-04-10T08:06:53.924Z,43.21
2018-04-10T08:07:53.634Z,47.92
2018-04-10T08:08:53.891Z,51.18
2018-04-10T08:09:53.889Z,45.54
2018-04-10T08:10:53.629Z,42.47
2018-04-10T08:11:53.884Z,42.85
2018-04-10T08:12:53.883Z,43.04
2018-04-10T08:13:53.623Z,45.92
2018-04-10T08:14:53.972Z,47.08
2018-04-10T08:15:53.884Z,45.73
2018-04-10T08:16:53.873Z,46.41
2018-04-10T08:17:53.611Z,47.46
2018-04-10T08:18:53.612Z,47
2018-04-10T08:19:53.869Z,42.68
2018-04-10T08:20:53.866Z,46.43
2018-04-10T08:21:53.863Z,47.68
2018-04-10T08:22:53.605Z,44.02
2018-04-10T08:23:53.864Z,40.47
2018-04-10T08:24:53.601Z,41.14
2018-04-10T08:25:53.855Z,44.12
2018-04-10T08:26:53.856Z,43.26
2018-04-10T08:27:53.593Z,42.77
2018-04-10T08:28:53.593Z,42.3
2018-04-10T08:29:53.850Z,41.62
2018-04-10T08:30:53.846Z,39.7
2018-04-10T08:31:53.846Z,39.12
2018-04-10T08:32:53.840Z,40.37
2018-04-10T08:33:53.839Z,38.16
2018-04-10T08:34:53.580Z,35.58
2018-04-10T08:35:53.839Z,35.47
2018-04-10T08:36:53.832Z,36.05
2018-04-10T08:37:53.905Z,36.24
2018-04-10T08:38:53.828Z,36.15
2018-04-10T08:39:53.826Z,36.72
2018-04-10T08:40:53.827Z,36.05
2018-04-10T08:41:53.826Z,35.95
2018-04-10T08:42:53.566Z,35.57
2018-04-10T08:43:53.822Z,37.2
2018-04-10T08:44:53.824Z,38.54
2018-04-10T08:45:53.559Z,39.51
2018-04-10T08:46:53.816Z,39.22
2018-04-10T08:47:53.816Z,41.26
2018-04-10T08:48:53.807Z,38.28
2018-04-10T08:49:53.553Z,38.66
2018-04-10T08:50:53.807Z,38.85
2018-04-10T08:51:53.805Z,38.66
2018-04-10T08:52:53.804Z,38.18
2018-04-10T08:53:53.811Z,37.51
2018-04-10T08:54:53.544Z,36.93
2018-04-10T08:55:53.799Z,41.64
2018-04-10T08:56:53.803Z,38.18
2018-04-10T08:57:53.801Z,37.12
2018-04-10T08:58:53.543Z,37.79
2018-04-10T08:59:53.535Z,37.43
2018-04-10T09:00:53.790Z,38.47
2018-04-10T09:01:53.790Z,38.28
2018-04-10T09:02:53.789Z,38.49
2018-04-10T09:03:53.785Z,37.72
2018-04-10T09:04:53.785Z,39.06
2018-04-10T09:05:53.527Z,39.16
2018-04-10T09:06:53.783Z,40.31
2018-04-10T09:07:53.780Z,39.54
2018-04-10T09:08:53.779Z,39.64
2018-04-10T09:09:53.778Z,39.95
2018-04-10T09:10:53.521Z,39.76
2018-04-10T09:11:53.781Z,40.05
2018-04-10T09:12:53.776Z,39.56
2018-04-10T09:13:53.518Z,39.09
2018-04-10T09:14:53.516Z,38.81
2018-04-10T09:15:53.772Z,38.33
2018-04-10T09:16:53.769Z,39.2
2018-04-10T09:17:53.768Z,37.27
2018-04-10T09:18:53.766Z,37.46
2018-04-10T09:19:53.765Z,40.07
2018-04-10T09:20:53.765Z,39.18
2018-04-10T09:21:53.836Z,40.74
2018-04-10T09:22:53.764Z,37.76
2018-04-10T09:23:53.759Z,36.89
2018-04-10T09:24:53.759Z,38.04
2018-04-10T09:25:53.761Z,39.78
2018-04-10T09:26:53.757Z,38.04
2018-04-10T09:27:53.757Z,37.37
2018-04-10T09:28:53.757Z,41.41
2018-04-10T09:29:53.757Z,42.67
2018-04-10T09:30:53.754Z,40.16
2018-04-10T09:31:53.756Z,39.29
2018-04-10T09:32:53.757Z,38.91
2018-04-10T09:33:53.752Z,39.87
2018-04-10T09:34:53.758Z,39.29
2018-04-10T09:35:53.800Z,37.27
2018-04-10T09:36:53.750Z,37.08
2018-04-10T09:37:53.490Z,37.37
2018-04-10T09:38:53.744Z,37.37
2018-04-10T09:39:53.744Z,37.66
2018-04-10T09:40:53.744Z,38.14
2018-04-10T09:41:53.743Z,39.39
2018-04-10T09:42:53.742Z,38.62
2018-04-10T09:43:53.487Z,37.46
2018-04-10T09:44:53.484Z,36.02
2018-04-10T09:45:53.743Z,36.6
2018-04-10T09:46:53.749Z,36.02
2018-04-10T09:47:53.747Z,36.02
2018-04-10T09:48:53.739Z,36.11
2018-04-10T09:49:53.482Z,37.95
2018-04-10T09:50:53.746Z,38.14
2018-04-10T09:51:53.739Z,36.6
2018-04-10T09:52:53.738Z,36.02
2018-04-10T09:53:53.735Z,36.11
2018-04-10T09:54:53.737Z,38.53
2018-04-10T09:55:53.477Z,37.95
2018-04-10T09:56:53.733Z,37.95
2018-04-10T09:57:53.735Z,39.22
2018-04-10T09:58:53.736Z,40.19
2018-04-10T09:59:53.754Z,37.87
2018-04-10T10:00:53.732Z,39.22
2018-04-10T10:01:53.475Z,38.83
2018-04-10T10:02:53.474Z,39.12
2018-04-10T10:03:53.732Z,38.16
2018-04-10T10:04:53.731Z,37.48
2018-04-10T10:05:53.728Z,37.12
2018-04-10T10:06:53.730Z,35.94
2018-04-10T10:07:53.728Z,37.19
2018-04-10T10:08:53.724Z,37.39
2018-04-10T10:09:53.469Z,37.58
2018-04-10T10:10:53.727Z,38.18
2018-04-10T10:11:53.467Z,38.28
2018-04-10T10:12:53.470Z,37.68
2018-04-10T10:13:53.752Z,37.7
2018-04-10T10:14:53.788Z,37.31
2018-04-10T10:15:53.467Z,39.03
2018-04-10T10:16:53.724Z,38.85
2018-04-10T10:17:53.725Z,37.87
2018-04-10T10:18:53.723Z,37.6
2018-04-10T10:19:53.774Z,37.5
2018-04-10T10:20:53.719Z,38.18
2018-04-10T10:21:53.465Z,38.46
2018-04-10T10:22:53.464Z,37.21
2018-04-10T10:23:53.467Z,36.44
2018-04-10T10:24:53.720Z,37.98
2018-04-10T10:25:53.718Z,35.28
2018-04-10T10:26:53.718Z,35.28
2018-04-10T10:27:53.718Z,36.15
2018-04-10T10:28:53.720Z,38.66
2018-04-10T10:29:53.718Z,39.24
2018-04-10T10:30:53.728Z,38.28
2018-04-10T10:31:53.461Z,37.7
2018-04-10T10:32:53.718Z,35.86
2018-04-10T10:33:53.717Z,36.06
2018-04-10T10:34:53.722Z,37.21
2018-04-10T10:35:53.717Z,37.02
2018-04-10T10:36:53.716Z,37.7
2018-04-10T10:37:53.459Z,37.79
2018-04-10T10:38:53.713Z,37.31
2018-04-10T10:39:53.715Z,35.58
2018-04-10T10:40:53.459Z,36.25
2018-04-10T10:41:53.713Z,35.1
2018-04-10T10:42:53.456Z,34.52
2018-04-10T10:43:53.714Z,35.67
2018-04-10T10:44:53.714Z,33.44
2018-04-10T10:45:53.716Z,32.76
2018-04-10T10:46:53.714Z,34.4
2018-04-10T10:47:53.714Z,33.82
2018-04-10T10:48:53.730Z,35.46
2018-04-10T10:49:53.717Z,35.94
2018-04-10T10:50:53.718Z,36.61
2018-04-10T10:51:53.457Z,36.23
2018-04-10T10:52:53.715Z,35.75
2018-04-10T10:53:53.457Z,35.27
2018-04-10T10:54:53.750Z,34.9
2018-04-10T10:55:53.710Z,34.69
2018-04-10T10:56:53.714Z,34.5
2018-04-10T10:57:53.715Z,34.13
2018-04-10T10:58:53.456Z,33.84
2018-04-10T10:59:53.712Z,34.9
2018-04-10T11:00:53.713Z,33.26
2018-04-10T11:01:53.455Z,33.74
2018-04-10T11:02:53.454Z,32.59
2018-04-10T11:03:53.710Z,33.25
2018-04-10T11:04:53.710Z,33.17
2018-04-10T11:05:53.709Z,33.36
2018-04-10T11:06:53.716Z,33.07
2018-04-10T11:07:53.788Z,33.44
2018-04-10T11:08:53.452Z,31.99
2018-04-10T11:09:53.711Z,34.59
2018-04-10T11:10:53.452Z,34.69
2018-04-10T11:11:53.456Z,33.73
2018-04-10T11:12:53.709Z,34.98
2018-04-10T11:13:53.715Z,34.98
2018-04-10T11:14:53.449Z,34.88
2018-04-10T11:15:53.706Z,33.45
2018-04-10T11:16:53.449Z,33.17
2018-04-10T11:17:53.705Z,32.59
2018-04-10T11:18:53.705Z,33.25
2018-04-10T11:19:53.706Z,34.4
2018-04-10T11:20:53.704Z,35.85
2018-04-10T11:21:53.447Z,35.56
2018-04-10T11:22:53.446Z,35.27
2018-04-10T11:23:53.704Z,35.85
2018-04-10T11:24:53.705Z,34.5
2018-04-10T11:25:53.448Z,33.53
2018-04-10T11:26:53.702Z,35.67
2018-04-10T11:27:53.704Z,34.61
2018-04-10T11:28:53.704Z,33.17
2018-04-10T11:29:53.707Z,34.03
2018-04-10T11:30:53.446Z,33.94
2018-04-10T11:31:53.704Z,35
2018-04-10T11:32:53.704Z,34.52
2018-04-10T11:33:53.446Z,34.72
2018-04-10T11:34:53.705Z,34.44
2018-04-10T11:35:53.706Z,35.11
2018-04-10T11:36:53.447Z,33.76
2018-04-10T11:37:53.704Z,32.03
2018-04-10T11:38:53.447Z,32.03
2018-04-10T11:39:53.706Z,30.77
2018-04-10T11:40:53.706Z,31.54
2018-04-10T11:41:53.712Z,31.81
2018-04-10T11:42:53.708Z,32.01
2018-04-10T11:43:53.449Z,32.2
2018-04-10T11:44:53.447Z,31.91
2018-04-10T11:45:53.705Z,31.33
2018-04-10T11:46:53.706Z,30.85
2018-04-10T11:47:53.448Z,31.43
2018-04-10T11:48:53.704Z,32.47
2018-04-10T11:49:53.705Z,31.32
2018-04-10T11:50:53.448Z,32.18
2018-04-10T11:51:53.708Z,32.28
2018-04-10T11:52:53.706Z,32.57
2018-04-10T11:53:53.708Z,32.87
2018-04-10T11:54:53.708Z,32.87
2018-04-10T11:55:53.448Z,31.9
2018-04-10T11:56:53.703Z,31.32
2018-04-10T11:57:53.705Z,31.22
2018-04-10T11:58:53.445Z,31.8
2018-04-10T11:59:53.446Z,32.26
2018-04-10T12:00:53.701Z,33.81
2018-04-10T12:01:53.710Z,33.42
2018-04-10T12:02:53.704Z,34.19
2018-04-10T12:03:53.445Z,34.19
2018-04-10T12:04:53.702Z,34.38
2018-04-10T12:05:53.702Z,34.09
2018-04-10T12:06:53.711Z,33.03
2018-04-10T12:07:53.699Z,32.65
2018-04-10T12:08:53.699Z,31.69
2018-04-10T12:09:53.451Z,32.94
2018-04-10T12:10:53.443Z,32.56
2018-04-10T12:11:53.699Z,33.13
2018-04-10T12:12:53.695Z,31.78
2018-04-10T12:13:53.712Z,31.03
2018-04-10T12:14:53.698Z,30.83
2018-04-10T12:15:53.695Z,31.22
2018-04-10T12:16:53.444Z,30.26
2018-04-10T12:17:53.438Z,29.28
2018-04-10T12:18:53.452Z,30.15
2018-04-10T12:19:53.439Z,30.34
2018-04-10T12:20:53.696Z,30.34
2018-04-10T12:21:53.439Z,28.99
2018-04-10T12:22:53.442Z,30.24
2018-04-10T12:23:53.700Z,29.57
2018-04-10T12:24:53.693Z,29.38
2018-04-10T12:25:53.437Z,28.99
2018-04-10T12:26:53.692Z,29.08
2018-04-10T12:27:53.438Z,31.01
2018-04-10T12:28:53.438Z,31.4
2018-04-10T12:29:53.692Z,31.01
2018-04-10T12:30:53.692Z,31.11
2018-04-10T12:31:53.693Z,31.21
2018-04-10T12:32:53.693Z,31.21
2018-04-10T12:33:53.691Z,31.49
2018-04-10T12:34:53.434Z,30.05
2018-04-10T12:35:53.432Z,31.21
2018-04-10T12:36:53.693Z,32.07
2018-04-10T12:37:53.692Z,31.22
2018-04-10T12:38:53.690Z,31.32
2018-04-10T12:39:53.432Z,30.07
2018-04-10T12:40:53.687Z,29.97
2018-04-10T12:41:53.688Z,29.57
2018-04-10T12:42:53.689Z,28.62
2018-04-10T12:43:53.771Z,29.29
2018-04-10T12:44:53.688Z,29.39
2018-04-10T12:45:53.687Z,29.68
2018-04-10T12:46:53.430Z,29.68
2018-04-10T12:47:53.684Z,28.91
2018-04-10T12:48:53.686Z,28.72
2018-04-10T12:49:53.428Z,29.39
2018-04-10T12:50:53.685Z,30.07
2018-04-10T12:51:53.426Z,29.58
2018-04-10T12:52:53.426Z,29.68
2018-04-10T12:53:53.682Z,29.68
2018-04-10T12:54:53.684Z,29.39
2018-04-10T12:55:53.684Z,29.18